sensor_id;sensor_type;location;lat;lon;timestamp;P1;durP1;ratioP1;P2;durP2;ratioP2
34491;SDS011;20737;49.908;8.126;2023-05-09T00:02:06;16.23;;;11.82;;
34491;SDS011;20737;49.908;8.126;2023-05-09T00:04:34;20.35;;;12.27;;
34491;SDS011;20737;49.908;8.126;2023-05-09T00:07:01;19.10;;;11.55;;
34491;SDS011;20737;49.908;8.126;2023-05-09T00:09:28;20.15;;;11.30;;
34491;SDS011;20737;49.908;8.126;2023-05-09T00:11:55;17.13;;;11.27;;
34491;SDS011;20737;49.908;8.126;2023-05-09T00:14:23;16.77;;;11.60;;
34491;SDS011;20737;49.908;8.126;2023-05-09T00:16:51;18.00;;;12.13;;
34491;SDS011;20737;49.908;8.126;2023-05-09T00:19:18;21.88;;;11.73;;
34491;SDS011;20737;49.908;8.126;2023-05-09T00:21:47;18.10;;;11.40;;
34491;SDS011;20737;49.908;8.126;2023-05-09T00:24:14;18.15;;;11.75;;
34491;SDS011;20737;49.908;8.126;2023-05-09T00:26:41;17.95;;;10.48;;
34491;SDS011;20737;49.908;8.126;2023-05-09T00:29:07;18.05;;;10.55;;
34491;SDS011;20737;49.908;8.126;2023-05-09T00:31:35;17.52;;;10.50;;
34491;SDS011;20737;49.908;8.126;2023-05-09T00:34:02;16.30;;;11.07;;
34491;SDS011;20737;49.908;8.126;2023-05-09T00:36:29;16.42;;;11.15;;
34491;SDS011;20737;49.908;8.126;2023-05-09T00:38:56;18.85;;;11.27;;
34491;SDS011;20737;49.908;8.126;2023-05-09T00:41:22;17.00;;;11.90;;
34491;SDS011;20737;49.908;8.126;2023-05-09T00:43:49;17.67;;;10.95;;
34491;SDS011;20737;49.908;8.126;2023-05-09T00:46:16;16.83;;;11.27;;
34491;SDS011;20737;49.908;8.126;2023-05-09T00:48:44;19.63;;;12.05;;
34491;SDS011;20737;49.908;8.126;2023-05-09T00:51:11;16.35;;;11.15;;
34491;SDS011;20737;49.908;8.126;2023-05-09T00:53:38;19.83;;;11.75;;
34491;SDS011;20737;49.908;8.126;2023-05-09T00:56:05;17.10;;;10.77;;
34491;SDS011;20737;49.908;8.126;2023-05-09T00:58:33;23.40;;;12.80;;
34491;SDS011;20737;49.908;8.126;2023-05-09T01:00:59;18.75;;;12.60;;
34491;SDS011;20737;49.908;8.126;2023-05-09T01:03:27;21.92;;;13.32;;
34491;SDS011;20737;49.908;8.126;2023-05-09T01:05:57;21.67;;;12.10;;
34491;SDS011;20737;49.908;8.126;2023-05-09T01:08:35;20.52;;;12.23;;
34491;SDS011;20737;49.908;8.126;2023-05-09T01:11:09;19.15;;;11.18;;
34491;SDS011;20737;49.908;8.126;2023-05-09T01:13:45;19.77;;;11.93;;
34491;SDS011;20737;49.908;8.126;2023-05-09T01:16:25;19.77;;;12.15;;
34491;SDS011;20737;49.908;8.126;2023-05-09T01:19:01;18.45;;;11.20;;
34491;SDS011;20737;49.908;8.126;2023-05-09T01:21:38;21.58;;;12.10;;
34491;SDS011;20737;49.908;8.126;2023-05-09T01:24:18;18.02;;;11.57;;
34491;SDS011;20737;49.908;8.126;2023-05-09T01:27:10;18.33;;;11.65;;
34491;SDS011;20737;49.908;8.126;2023-05-09T01:29:48;19.23;;;12.27;;
34491;SDS011;20737;49.908;8.126;2023-05-09T01:32:22;16.67;;;11.30;;
34491;SDS011;20737;49.908;8.126;2023-05-09T01:34:51;21.20;;;11.73;;
34491;SDS011;20737;49.908;8.126;2023-05-09T01:37:23;19.10;;;11.00;;
34491;SDS011;20737;49.908;8.126;2023-05-09T01:39:55;16.60;;;11.77;;
34491;SDS011;20737;49.908;8.126;2023-05-09T01:42:26;16.58;;;10.82;;
34491;SDS011;20737;49.908;8.126;2023-05-09T01:45:00;15.63;;;11.23;;
34491;SDS011;20737;49.908;8.126;2023-05-09T01:47:29;22.45;;;12.48;;
34491;SDS011;20737;49.908;8.126;2023-05-09T01:49:56;16.50;;;11.15;;
34491;SDS011;20737;49.908;8.126;2023-05-09T01:52:26;17.45;;;11.73;;
34491;SDS011;20737;49.908;8.126;2023-05-09T01:54:54;22.08;;;13.02;;
34491;SDS011;20737;49.908;8.126;2023-05-09T01:57:21;20.42;;;12.30;;
34491;SDS011;20737;49.908;8.126;2023-05-09T01:59:49;22.33;;;12.98;;
34491;SDS011;20737;49.908;8.126;2023-05-09T02:02:18;20.15;;;12.15;;
34491;SDS011;20737;49.908;8.126;2023-05-09T02:04:50;21.67;;;12.50;;
34491;SDS011;20737;49.908;8.126;2023-05-09T02:07:17;23.88;;;12.63;;
34491;SDS011;20737;49.908;8.126;2023-05-09T02:09:45;18.25;;;12.48;;
34491;SDS011;20737;49.908;8.126;2023-05-09T02:12:14;17.27;;;11.55;;
34491;SDS011;20737;49.908;8.126;2023-05-09T02:14:43;21.88;;;11.68;;
34491;SDS011;20737;49.908;8.126;2023-05-09T02:17:09;19.17;;;11.73;;
34491;SDS011;20737;49.908;8.126;2023-05-09T02:19:42;16.98;;;10.93;;
34491;SDS011;20737;49.908;8.126;2023-05-09T02:22:09;19.15;;;12.30;;
34491;SDS011;20737;49.908;8.126;2023-05-09T02:24:38;20.17;;;13.02;;
34491;SDS011;20737;49.908;8.126;2023-05-09T02:27:05;18.98;;;11.93;;
34491;SDS011;20737;49.908;8.126;2023-05-09T02:29:33;17.35;;;11.25;;
34491;SDS011;20737;49.908;8.126;2023-05-09T02:32:05;20.48;;;12.23;;
34491;SDS011;20737;49.908;8.126;2023-05-09T02:34:34;17.25;;;10.98;;
34491;SDS011;20737;49.908;8.126;2023-05-09T02:37:03;17.67;;;11.18;;
34491;SDS011;20737;49.908;8.126;2023-05-09T02:39:30;20.92;;;11.98;;
34491;SDS011;20737;49.908;8.126;2023-05-09T02:42:00;19.55;;;10.82;;
34491;SDS011;20737;49.908;8.126;2023-05-09T02:44:31;16.33;;;10.73;;
34491;SDS011;20737;49.908;8.126;2023-05-09T02:46:58;19.38;;;12.27;;
34491;SDS011;20737;49.908;8.126;2023-05-09T02:49:24;15.38;;;11.05;;
34491;SDS011;20737;49.908;8.126;2023-05-09T02:51:51;16.90;;;11.20;;
34491;SDS011;20737;49.908;8.126;2023-05-09T02:54:19;16.27;;;10.85;;
34491;SDS011;20737;49.908;8.126;2023-05-09T02:56:46;21.17;;;12.13;;
34491;SDS011;20737;49.908;8.126;2023-05-09T02:59:13;22.77;;;11.68;;
34491;SDS011;20737;49.908;8.126;2023-05-09T03:01:40;19.88;;;12.32;;
34491;SDS011;20737;49.908;8.126;2023-05-09T03:04:06;21.13;;;12.38;;
34491;SDS011;20737;49.908;8.126;2023-05-09T03:06:33;21.48;;;12.27;;
34491;SDS011;20737;49.908;8.126;2023-05-09T03:09:04;18.15;;;12.00;;
34491;SDS011;20737;49.908;8.126;2023-05-09T03:11:32;20.10;;;12.20;;
34491;SDS011;20737;49.908;8.126;2023-05-09T03:14:00;16.35;;;10.60;;
34491;SDS011;20737;49.908;8.126;2023-05-09T03:16:27;14.57;;;9.63;;
34491;SDS011;20737;49.908;8.126;2023-05-09T03:18:55;17.90;;;11.40;;
34491;SDS011;20737;49.908;8.126;2023-05-09T03:21:22;15.45;;;10.35;;
34491;SDS011;20737;49.908;8.126;2023-05-09T03:23:49;21.05;;;11.45;;
34491;SDS011;20737;49.908;8.126;2023-05-09T03:26:15;18.77;;;12.07;;
34491;SDS011;20737;49.908;8.126;2023-05-09T03:28:44;18.55;;;12.35;;
34491;SDS011;20737;49.908;8.126;2023-05-09T03:31:13;18.92;;;11.32;;
34491;SDS011;20737;49.908;8.126;2023-05-09T03:33:43;16.63;;;10.98;;
34491;SDS011;20737;49.908;8.126;2023-05-09T03:36:11;23.52;;;12.52;;
34491;SDS011;20737;49.908;8.126;2023-05-09T03:38:39;18.13;;;11.13;;
34491;SDS011;20737;49.908;8.126;2023-05-09T03:41:05;21.40;;;12.25;;
34491;SDS011;20737;49.908;8.126;2023-05-09T03:43:32;20.02;;;12.70;;
34491;SDS011;20737;49.908;8.126;2023-05-09T03:46:00;18.35;;;12.50;;
34491;SDS011;20737;49.908;8.126;2023-05-09T03:48:28;22.08;;;12.10;;
34491;SDS011;20737;49.908;8.126;2023-05-09T03:50:54;20.23;;;12.70;;
34491;SDS011;20737;49.908;8.126;2023-05-09T03:53:21;20.73;;;13.05;;
34491;SDS011;20737;49.908;8.126;2023-05-09T03:55:48;18.95;;;11.50;;
34491;SDS011;20737;49.908;8.126;2023-05-09T03:58:15;18.95;;;11.95;;
34491;SDS011;20737;49.908;8.126;2023-05-09T04:00:43;18.95;;;12.55;;
34491;SDS011;20737;49.908;8.126;2023-05-09T04:03:11;16.52;;;11.13;;
34491;SDS011;20737;49.908;8.126;2023-05-09T04:05:38;20.27;;;11.18;;
34491;SDS011;20737;49.908;8.126;2023-05-09T04:08:05;18.80;;;11.48;;
34491;SDS011;20737;49.908;8.126;2023-05-09T04:10:32;21.30;;;11.10;;
34491;SDS011;20737;49.908;8.126;2023-05-09T04:13:00;16.58;;;11.10;;
34491;SDS011;20737;49.908;8.126;2023-05-09T04:15:27;19.80;;;10.82;;
34491;SDS011;20737;49.908;8.126;2023-05-09T04:17:54;18.08;;;11.63;;
34491;SDS011;20737;49.908;8.126;2023-05-09T04:20:24;22.10;;;12.82;;
34491;SDS011;20737;49.908;8.126;2023-05-09T04:22:51;20.77;;;11.95;;
34491;SDS011;20737;49.908;8.126;2023-05-09T04:25:18;19.95;;;12.43;;
34491;SDS011;20737;49.908;8.126;2023-05-09T04:27:47;20.88;;;12.23;;
34491;SDS011;20737;49.908;8.126;2023-05-09T04:30:14;19.98;;;12.27;;
34491;SDS011;20737;49.908;8.126;2023-05-09T04:32:41;17.95;;;11.50;;
34491;SDS011;20737;49.908;8.126;2023-05-09T04:35:09;19.08;;;11.73;;
34491;SDS011;20737;49.908;8.126;2023-05-09T04:37:40;18.88;;;11.60;;
34491;SDS011;20737;49.908;8.126;2023-05-09T04:40:08;20.27;;;13.00;;
34491;SDS011;20737;49.908;8.126;2023-05-09T04:42:35;20.25;;;12.63;;
34491;SDS011;20737;49.908;8.126;2023-05-09T04:45:03;21.00;;;12.88;;
34491;SDS011;20737;49.908;8.126;2023-05-09T04:47:30;22.55;;;13.00;;
34491;SDS011;20737;49.908;8.126;2023-05-09T04:50:00;21.42;;;12.52;;
34491;SDS011;20737;49.908;8.126;2023-05-09T04:52:36;22.90;;;13.57;;
34491;SDS011;20737;49.908;8.126;2023-05-09T04:55:04;24.38;;;14.13;;
34491;SDS011;20737;49.908;8.126;2023-05-09T04:57:32;21.50;;;13.18;;
34491;SDS011;20737;49.908;8.126;2023-05-09T04:59:58;18.80;;;12.52;;
34491;SDS011;20737;49.908;8.126;2023-05-09T05:02:25;21.20;;;13.40;;
34491;SDS011;20737;49.908;8.126;2023-05-09T05:04:52;22.75;;;13.00;;
34491;SDS011;20737;49.908;8.126;2023-05-09T05:07:18;28.98;;;14.18;;
34491;SDS011;20737;49.908;8.126;2023-05-09T05:09:45;25.33;;;14.13;;
34491;SDS011;20737;49.908;8.126;2023-05-09T05:12:13;22.48;;;13.88;;
34491;SDS011;20737;49.908;8.126;2023-05-09T05:14:40;24.85;;;13.13;;
34491;SDS011;20737;49.908;8.126;2023-05-09T05:17:07;18.90;;;12.82;;
34491;SDS011;20737;49.908;8.126;2023-05-09T05:19:33;25.85;;;14.18;;
34491;SDS011;20737;49.908;8.126;2023-05-09T05:22:00;20.48;;;13.57;;
34491;SDS011;20737;49.908;8.126;2023-05-09T05:24:27;22.17;;;13.77;;
34491;SDS011;20737;49.908;8.126;2023-05-09T05:26:54;20.05;;;13.88;;
34491;SDS011;20737;49.908;8.126;2023-05-09T05:29:22;21.92;;;13.82;;
34491;SDS011;20737;49.908;8.126;2023-05-09T05:31:49;24.23;;;14.45;;
34491;SDS011;20737;49.908;8.126;2023-05-09T05:34:15;18.90;;;13.50;;
34491;SDS011;20737;49.908;8.126;2023-05-09T05:36:42;21.27;;;12.93;;
34491;SDS011;20737;49.908;8.126;2023-05-09T05:39:09;23.30;;;14.63;;
34491;SDS011;20737;49.908;8.126;2023-05-09T05:41:35;22.08;;;13.93;;
34491;SDS011;20737;49.908;8.126;2023-05-09T05:44:02;21.80;;;14.07;;
34491;SDS011;20737;49.908;8.126;2023-05-09T05:46:30;18.23;;;14.38;;
34491;SDS011;20737;49.908;8.126;2023-05-09T05:48:59;24.55;;;14.38;;
34491;SDS011;20737;49.908;8.126;2023-05-09T05:51:25;21.85;;;14.43;;
34491;SDS011;20737;49.908;8.126;2023-05-09T05:53:52;20.83;;;13.93;;
34491;SDS011;20737;49.908;8.126;2023-05-09T05:56:19;23.13;;;14.85;;
34491;SDS011;20737;49.908;8.126;2023-05-09T05:58:46;22.40;;;15.25;;
34491;SDS011;20737;49.908;8.126;2023-05-09T06:01:13;21.63;;;14.45;;
34491;SDS011;20737;49.908;8.126;2023-05-09T06:03:41;19.17;;;14.18;;
34491;SDS011;20737;49.908;8.126;2023-05-09T06:06:08;18.83;;;14.27;;
34491;SDS011;20737;49.908;8.126;2023-05-09T06:08:37;23.08;;;14.68;;
34491;SDS011;20737;49.908;8.126;2023-05-09T06:11:04;20.88;;;14.98;;
34491;SDS011;20737;49.908;8.126;2023-05-09T06:13:31;20.55;;;14.88;;
34491;SDS011;20737;49.908;8.126;2023-05-09T06:15:58;20.85;;;13.75;;
34491;SDS011;20737;49.908;8.126;2023-05-09T06:18:25;19.80;;;13.98;;
34491;SDS011;20737;49.908;8.126;2023-05-09T06:20:53;21.40;;;13.85;;
34491;SDS011;20737;49.908;8.126;2023-05-09T06:23:20;19.35;;;13.70;;
34491;SDS011;20737;49.908;8.126;2023-05-09T06:25:47;20.23;;;14.70;;
34491;SDS011;20737;49.908;8.126;2023-05-09T06:28:15;21.27;;;14.77;;
34491;SDS011;20737;49.908;8.126;2023-05-09T06:30:41;21.75;;;14.60;;
34491;SDS011;20737;49.908;8.126;2023-05-09T06:33:08;21.67;;;14.75;;
34491;SDS011;20737;49.908;8.126;2023-05-09T06:35:35;24.92;;;15.10;;
34491;SDS011;20737;49.908;8.126;2023-05-09T06:38:03;22.50;;;15.30;;
34491;SDS011;20737;49.908;8.126;2023-05-09T06:40:30;24.98;;;16.33;;
34491;SDS011;20737;49.908;8.126;2023-05-09T06:42:56;22.23;;;15.02;;
34491;SDS011;20737;49.908;8.126;2023-05-09T06:45:23;20.88;;;14.45;;
34491;SDS011;20737;49.908;8.126;2023-05-09T06:47:51;22.75;;;14.45;;
34491;SDS011;20737;49.908;8.126;2023-05-09T06:50:17;22.70;;;15.30;;
34491;SDS011;20737;49.908;8.126;2023-05-09T06:52:44;20.20;;;13.65;;
34491;SDS011;20737;49.908;8.126;2023-05-09T06:55:12;23.10;;;14.90;;
34491;SDS011;20737;49.908;8.126;2023-05-09T06:57:39;27.25;;;15.70;;
34491;SDS011;20737;49.908;8.126;2023-05-09T07:00:09;23.15;;;16.50;;
34491;SDS011;20737;49.908;8.126;2023-05-09T07:02:36;27.63;;;16.38;;
34491;SDS011;20737;49.908;8.126;2023-05-09T07:05:06;23.70;;;15.77;;
34491;SDS011;20737;49.908;8.126;2023-05-09T07:07:33;25.38;;;17.30;;
34491;SDS011;20737;49.908;8.126;2023-05-09T07:10:00;27.90;;;17.00;;
34491;SDS011;20737;49.908;8.126;2023-05-09T07:12:30;26.02;;;16.00;;
34491;SDS011;20737;49.908;8.126;2023-05-09T07:14:57;22.33;;;15.02;;
34491;SDS011;20737;49.908;8.126;2023-05-09T07:17:27;25.98;;;15.40;;
34491;SDS011;20737;49.908;8.126;2023-05-09T07:19:54;22.90;;;14.98;;
34491;SDS011;20737;49.908;8.126;2023-05-09T07:22:21;26.23;;;16.70;;
34491;SDS011;20737;49.908;8.126;2023-05-09T07:24:47;28.70;;;17.65;;
34491;SDS011;20737;49.908;8.126;2023-05-09T07:27:14;31.52;;;18.00;;
34491;SDS011;20737;49.908;8.126;2023-05-09T07:29:42;29.48;;;17.77;;
34491;SDS011;20737;49.908;8.126;2023-05-09T07:32:09;30.40;;;17.95;;
34491;SDS011;20737;49.908;8.126;2023-05-09T07:34:36;32.97;;;18.70;;
34491;SDS011;20737;49.908;8.126;2023-05-09T07:37:03;32.60;;;17.02;;
34491;SDS011;20737;49.908;8.126;2023-05-09T07:39:29;28.63;;;17.90;;
34491;SDS011;20737;49.908;8.126;2023-05-09T07:41:56;32.10;;;17.50;;
34491;SDS011;20737;49.908;8.126;2023-05-09T07:44:23;29.55;;;17.15;;
34491;SDS011;20737;49.908;8.126;2023-05-09T07:46:51;29.77;;;17.63;;
34491;SDS011;20737;49.908;8.126;2023-05-09T07:49:19;29.40;;;17.75;;
34491;SDS011;20737;49.908;8.126;2023-05-09T07:51:46;25.58;;;17.02;;
34491;SDS011;20737;49.908;8.126;2023-05-09T07:54:12;26.40;;;17.63;;
34491;SDS011;20737;49.908;8.126;2023-05-09T07:56:39;24.13;;;16.00;;
34491;SDS011;20737;49.908;8.126;2023-05-09T07:59:06;27.77;;;17.23;;
34491;SDS011;20737;49.908;8.126;2023-05-09T08:01:33;26.98;;;16.27;;
34491;SDS011;20737;49.908;8.126;2023-05-09T08:04:01;25.20;;;16.42;;
34491;SDS011;20737;49.908;8.126;2023-05-09T08:06:29;27.52;;;16.15;;
34491;SDS011;20737;49.908;8.126;2023-05-09T08:08:56;26.73;;;16.23;;
34491;SDS011;20737;49.908;8.126;2023-05-09T08:11:23;26.15;;;15.23;;
34491;SDS011;20737;49.908;8.126;2023-05-09T08:13:50;26.92;;;16.92;;
34491;SDS011;20737;49.908;8.126;2023-05-09T08:16:17;24.27;;;16.27;;
34491;SDS011;20737;49.908;8.126;2023-05-09T08:18:43;25.70;;;16.05;;
34491;SDS011;20737;49.908;8.126;2023-05-09T08:21:12;25.10;;;15.73;;
34491;SDS011;20737;49.908;8.126;2023-05-09T08:23:38;24.75;;;14.95;;
34491;SDS011;20737;49.908;8.126;2023-05-09T08:26:05;26.35;;;15.32;;
34491;SDS011;20737;49.908;8.126;2023-05-09T08:28:32;31.17;;;16.48;;
34491;SDS011;20737;49.908;8.126;2023-05-09T08:30:59;24.98;;;15.90;;
34491;SDS011;20737;49.908;8.126;2023-05-09T08:33:25;28.83;;;16.05;;
34491;SDS011;20737;49.908;8.126;2023-05-09T08:35:52;27.45;;;16.13;;
34491;SDS011;20737;49.908;8.126;2023-05-09T08:38:21;28.52;;;16.00;;
34491;SDS011;20737;49.908;8.126;2023-05-09T08:40:48;24.67;;;15.23;;
34491;SDS011;20737;49.908;8.126;2023-05-09T08:43:15;26.17;;;16.13;;
34491;SDS011;20737;49.908;8.126;2023-05-09T08:45:44;28.17;;;16.33;;
34491;SDS011;20737;49.908;8.126;2023-05-09T08:48:12;25.50;;;15.00;;
34491;SDS011;20737;49.908;8.126;2023-05-09T08:50:41;26.17;;;15.15;;
34491;SDS011;20737;49.908;8.126;2023-05-09T08:53:08;25.15;;;14.50;;
34491;SDS011;20737;49.908;8.126;2023-05-09T08:55:36;24.05;;;15.05;;
34491;SDS011;20737;49.908;8.126;2023-05-09T08:58:04;24.92;;;14.18;;
34491;SDS011;20737;49.908;8.126;2023-05-09T09:00:32;21.05;;;13.77;;
34491;SDS011;20737;49.908;8.126;2023-05-09T09:03:00;19.45;;;13.27;;
34491;SDS011;20737;49.908;8.126;2023-05-09T09:05:28;25.58;;;15.27;;
34491;SDS011;20737;49.908;8.126;2023-05-09T09:07:56;24.52;;;14.02;;
34491;SDS011;20737;49.908;8.126;2023-05-09T09:10:23;19.83;;;13.95;;
34491;SDS011;20737;49.908;8.126;2023-05-09T09:12:56;22.48;;;14.70;;
34491;SDS011;20737;49.908;8.126;2023-05-09T09:15:25;20.50;;;14.38;;
34491;SDS011;20737;49.908;8.126;2023-05-09T09:17:54;24.73;;;14.60;;
34491;SDS011;20737;49.908;8.126;2023-05-09T09:20:24;25.50;;;14.85;;
34491;SDS011;20737;49.908;8.126;2023-05-09T09:22:57;22.67;;;14.45;;
34491;SDS011;20737;49.908;8.126;2023-05-09T09:25:25;19.95;;;14.15;;
34491;SDS011;20737;49.908;8.126;2023-05-09T09:27:51;23.25;;;15.23;;
34491;SDS011;20737;49.908;8.126;2023-05-09T09:30:21;19.80;;;12.90;;
34491;SDS011;20737;49.908;8.126;2023-05-09T09:32:49;23.83;;;14.93;;
34491;SDS011;20737;49.908;8.126;2023-05-09T09:35:16;19.10;;;13.13;;
34491;SDS011;20737;49.908;8.126;2023-05-09T09:37:44;31.88;;;16.83;;
34491;SDS011;20737;49.908;8.126;2023-05-09T09:40:11;27.38;;;15.85;;
34491;SDS011;20737;49.908;8.126;2023-05-09T09:42:42;27.15;;;16.52;;
34491;SDS011;20737;49.908;8.126;2023-05-09T09:45:10;26.63;;;16.35;;
34491;SDS011;20737;49.908;8.126;2023-05-09T09:47:39;27.92;;;15.98;;
34491;SDS011;20737;49.908;8.126;2023-05-09T09:50:09;25.30;;;15.25;;
34491;SDS011;20737;49.908;8.126;2023-05-09T09:52:40;24.35;;;16.40;;
34491;SDS011;20737;49.908;8.126;2023-05-09T09:55:09;25.08;;;15.10;;
34491;SDS011;20737;49.908;8.126;2023-05-09T09:57:37;26.63;;;16.08;;
34491;SDS011;20737;49.908;8.126;2023-05-09T10:00:08;24.40;;;15.05;;
34491;SDS011;20737;49.908;8.126;2023-05-09T10:02:46;23.13;;;15.30;;
34491;SDS011;20737;49.908;8.126;2023-05-09T10:05:17;26.17;;;15.32;;
34491;SDS011;20737;49.908;8.126;2023-05-09T10:07:50;23.70;;;15.35;;
34491;SDS011;20737;49.908;8.126;2023-05-09T10:12:47;24.15;;;15.27;;
34491;SDS011;20737;49.908;8.126;2023-05-09T10:15:16;26.27;;;15.50;;
34491;SDS011;20737;49.908;8.126;2023-05-09T10:17:47;23.85;;;15.82;;
34491;SDS011;20737;49.908;8.126;2023-05-09T10:20:17;24.50;;;15.45;;
34491;SDS011;20737;49.908;8.126;2023-05-09T10:22:44;27.63;;;16.33;;
34491;SDS011;20737;49.908;8.126;2023-05-09T10:25:13;25.85;;;16.15;;
34491;SDS011;20737;49.908;8.126;2023-05-09T10:27:44;26.15;;;16.17;;
34491;SDS011;20737;49.908;8.126;2023-05-09T10:30:12;22.73;;;15.50;;
34491;SDS011;20737;49.908;8.126;2023-05-09T10:32:46;23.48;;;15.38;;
34491;SDS011;20737;49.908;8.126;2023-05-09T10:35:19;22.95;;;15.82;;
34491;SDS011;20737;49.908;8.126;2023-05-09T10:37:49;25.00;;;16.00;;
34491;SDS011;20737;49.908;8.126;2023-05-09T10:40:20;25.08;;;15.80;;
34491;SDS011;20737;49.908;8.126;2023-05-09T10:42:47;19.27;;;14.32;;
34491;SDS011;20737;49.908;8.126;2023-05-09T10:45:14;20.48;;;14.50;;
34491;SDS011;20737;49.908;8.126;2023-05-09T10:47:41;19.65;;;13.30;;
34491;SDS011;20737;49.908;8.126;2023-05-09T10:50:11;19.88;;;13.88;;
34491;SDS011;20737;49.908;8.126;2023-05-09T10:55:36;18.45;;;13.55;;
34491;SDS011;20737;49.908;8.126;2023-05-09T10:58:17;18.58;;;13.60;;
34491;SDS011;20737;49.908;8.126;2023-05-09T11:00:45;16.08;;;12.75;;
34491;SDS011;20737;49.908;8.126;2023-05-09T11:03:13;15.93;;;12.55;;
34491;SDS011;20737;49.908;8.126;2023-05-09T11:05:42;14.30;;;12.80;;
34491;SDS011;20737;49.908;8.126;2023-05-09T11:08:21;14.23;;;11.18;;
34491;SDS011;20737;49.908;8.126;2023-05-09T11:10:50;12.93;;;10.63;;
34491;SDS011;20737;49.908;8.126;2023-05-09T11:13:17;16.63;;;11.82;;
34491;SDS011;20737;49.908;8.126;2023-05-09T11:16:04;16.75;;;12.73;;
34491;SDS011;20737;49.908;8.126;2023-05-09T11:18:35;17.30;;;12.20;;
34491;SDS011;20737;49.908;8.126;2023-05-09T11:21:17;15.73;;;12.25;;
34491;SDS011;20737;49.908;8.126;2023-05-09T11:23:46;15.07;;;12.63;;
34491;SDS011;20737;49.908;8.126;2023-05-09T11:26:14;15.02;;;12.18;;
34491;SDS011;20737;49.908;8.126;2023-05-09T11:28:42;17.00;;;13.00;;
34491;SDS011;20737;49.908;8.126;2023-05-09T11:31:18;18.20;;;14.60;;
34491;SDS011;20737;49.908;8.126;2023-05-09T11:33:46;16.38;;;12.75;;
34491;SDS011;20737;49.908;8.126;2023-05-09T11:39:00;20.58;;;15.57;;
34491;SDS011;20737;49.908;8.126;2023-05-09T11:41:29;22.63;;;15.40;;
34491;SDS011;20737;49.908;8.126;2023-05-09T11:43:56;20.52;;;15.07;;
34491;SDS011;20737;49.908;8.126;2023-05-09T11:46:24;19.42;;;15.20;;
34491;SDS011;20737;49.908;8.126;2023-05-09T11:48:51;23.02;;;17.00;;
34491;SDS011;20737;49.908;8.126;2023-05-09T11:51:18;24.73;;;17.10;;
34491;SDS011;20737;49.908;8.126;2023-05-09T11:53:48;24.48;;;15.77;;
34491;SDS011;20737;49.908;8.126;2023-05-09T11:56:15;22.73;;;15.73;;
34491;SDS011;20737;49.908;8.126;2023-05-09T11:58:43;19.67;;;14.35;;
34491;SDS011;20737;49.908;8.126;2023-05-09T12:01:10;25.70;;;15.60;;
34491;SDS011;20737;49.908;8.126;2023-05-09T12:03:40;21.33;;;14.68;;
34491;SDS011;20737;49.908;8.126;2023-05-09T12:06:08;19.05;;;13.85;;
34491;SDS011;20737;49.908;8.126;2023-05-09T12:08:41;21.13;;;14.85;;
34491;SDS011;20737;49.908;8.126;2023-05-09T12:11:09;20.45;;;14.73;;
34491;SDS011;20737;49.908;8.126;2023-05-09T12:13:42;25.15;;;15.13;;
34491;SDS011;20737;49.908;8.126;2023-05-09T12:16:10;21.70;;;16.25;;
34491;SDS011;20737;49.908;8.126;2023-05-09T12:18:37;21.38;;;15.18;;
34491;SDS011;20737;49.908;8.126;2023-05-09T12:21:08;22.65;;;14.35;;
34491;SDS011;20737;49.908;8.126;2023-05-09T12:23:36;19.52;;;14.02;;
34491;SDS011;20737;49.908;8.126;2023-05-09T12:26:04;21.08;;;14.18;;
34491;SDS011;20737;49.908;8.126;2023-05-09T12:28:31;19.73;;;13.77;;
34491;SDS011;20737;49.908;8.126;2023-05-09T12:30:58;20.15;;;14.13;;
34491;SDS011;20737;49.908;8.126;2023-05-09T12:33:25;21.13;;;13.90;;
34491;SDS011;20737;49.908;8.126;2023-05-09T12:36:02;20.45;;;14.95;;
34491;SDS011;20737;49.908;8.126;2023-05-09T12:38:30;24.35;;;14.60;;
34491;SDS011;20737;49.908;8.126;2023-05-09T12:41:01;25.05;;;15.95;;
34491;SDS011;20737;49.908;8.126;2023-05-09T12:43:32;28.77;;;18.80;;
34491;SDS011;20737;49.908;8.126;2023-05-09T12:46:01;27.00;;;18.13;;
34491;SDS011;20737;49.908;8.126;2023-05-09T12:48:28;21.95;;;14.93;;
34491;SDS011;20737;49.908;8.126;2023-05-09T12:51:01;21.55;;;14.40;;
34491;SDS011;20737;49.908;8.126;2023-05-09T12:53:28;22.95;;;15.10;;
34491;SDS011;20737;49.908;8.126;2023-05-09T12:55:58;22.33;;;14.73;;
34491;SDS011;20737;49.908;8.126;2023-05-09T12:58:30;18.92;;;12.65;;
34491;SDS011;20737;49.908;8.126;2023-05-09T13:01:01;17.30;;;12.43;;
34491;SDS011;20737;49.908;8.126;2023-05-09T13:03:29;18.33;;;13.60;;
34491;SDS011;20737;49.908;8.126;2023-05-09T13:06:02;19.13;;;13.17;;
34491;SDS011;20737;49.908;8.126;2023-05-09T13:08:29;20.45;;;13.32;;
34491;SDS011;20737;49.908;8.126;2023-05-09T13:10:56;18.15;;;13.05;;
34491;SDS011;20737;49.908;8.126;2023-05-09T13:13:24;21.80;;;14.38;;
34491;SDS011;20737;49.908;8.126;2023-05-09T13:15:53;19.48;;;13.32;;
34491;SDS011;20737;49.908;8.126;2023-05-09T13:18:21;20.65;;;13.85;;
34491;SDS011;20737;49.908;8.126;2023-05-09T13:20:48;18.00;;;12.73;;
34491;SDS011;20737;49.908;8.126;2023-05-09T13:23:15;13.23;;;10.00;;
34491;SDS011;20737;49.908;8.126;2023-05-09T13:25:41;9.70;;;7.30;;
34491;SDS011;20737;49.908;8.126;2023-05-09T13:28:08;7.70;;;6.50;;
34491;SDS011;20737;49.908;8.126;2023-05-09T13:30:35;8.82;;;6.38;;
34491;SDS011;20737;49.908;8.126;2023-05-09T13:33:03;7.82;;;5.90;;
34491;SDS011;20737;49.908;8.126;2023-05-09T13:35:30;9.55;;;6.80;;
34491;SDS011;20737;49.908;8.126;2023-05-09T13:37:56;8.20;;;6.00;;
34491;SDS011;20737;49.908;8.126;2023-05-09T13:40:25;9.18;;;6.60;;
34491;SDS011;20737;49.908;8.126;2023-05-09T13:42:52;7.85;;;6.40;;
34491;SDS011;20737;49.908;8.126;2023-05-09T13:45:18;10.63;;;8.50;;
34491;SDS011;20737;49.908;8.126;2023-05-09T13:47:47;16.08;;;10.85;;
34491;SDS011;20737;49.908;8.126;2023-05-09T13:50:15;15.77;;;11.00;;
34491;SDS011;20737;49.908;8.126;2023-05-09T13:52:42;15.98;;;9.88;;
34491;SDS011;20737;49.908;8.126;2023-05-09T13:55:09;16.20;;;10.68;;
34491;SDS011;20737;49.908;8.126;2023-05-09T13:57:36;15.98;;;12.20;;
34491;SDS011;20737;49.908;8.126;2023-05-09T14:00:03;20.00;;;12.57;;
34491;SDS011;20737;49.908;8.126;2023-05-09T14:02:31;15.00;;;11.65;;
34491;SDS011;20737;49.908;8.126;2023-05-09T14:04:59;15.57;;;12.07;;
34491;SDS011;20737;49.908;8.126;2023-05-09T14:07:28;13.75;;;11.02;;
34491;SDS011;20737;49.908;8.126;2023-05-09T14:09:55;16.08;;;12.20;;
34491;SDS011;20737;49.908;8.126;2023-05-09T14:12:24;15.02;;;11.88;;
34491;SDS011;20737;49.908;8.126;2023-05-09T14:14:51;19.23;;;13.93;;
34491;SDS011;20737;49.908;8.126;2023-05-09T14:17:17;14.98;;;10.88;;
34491;SDS011;20737;49.908;8.126;2023-05-09T14:19:44;13.00;;;10.27;;
34491;SDS011;20737;49.908;8.126;2023-05-09T14:22:11;14.80;;;11.27;;
34491;SDS011;20737;49.908;8.126;2023-05-09T14:24:41;16.67;;;11.68;;
34491;SDS011;20737;49.908;8.126;2023-05-09T14:27:08;16.77;;;11.73;;
34491;SDS011;20737;49.908;8.126;2023-05-09T14:29:34;18.83;;;12.00;;
34491;SDS011;20737;49.908;8.126;2023-05-09T14:32:03;15.35;;;12.20;;
34491;SDS011;20737;49.908;8.126;2023-05-09T14:34:31;16.73;;;11.55;;
34491;SDS011;20737;49.908;8.126;2023-05-09T14:36:57;16.83;;;12.18;;
34491;SDS011;20737;49.908;8.126;2023-05-09T14:39:24;15.57;;;11.20;;